createdAt,value
2018-04-30T00:01:48.759Z,3.30
2018-04-30T00:04:16.210Z,3.00
2018-04-30T00:06:43.685Z,3.00
2018-04-30T00:09:11.161Z,3.03
2018-04-30T00:11:38.617Z,3.40
2018-04-30T00:14:06.083Z,4.60
2018-04-30T00:16:34.301Z,3.97
2018-04-30T00:19:01.826Z,3.43
2018-04-30T00:21:30.070Z,3.40
2018-04-30T00:23:57.525Z,3.90
2018-04-30T00:26:25.013Z,3.60
2018-04-30T00:28:53.254Z,3.10
2018-04-30T00:31:20.697Z,3.23
2018-04-30T00:33:48.311Z,3.20
2018-04-30T00:36:15.764Z,2.40
2018-04-30T00:38:43.982Z,3.37
2018-04-30T00:41:11.426Z,3.97
2018-04-30T00:43:38.879Z,2.70
2018-04-30T00:46:06.324Z,2.80
2018-04-30T00:48:33.782Z,2.97
2018-04-30T00:51:01.243Z,2.83
2018-04-30T00:53:28.711Z,3.40
2018-04-30T00:55:56.167Z,2.87
2018-04-30T00:58:23.615Z,3.03
2018-04-30T01:00:51.078Z,2.93
2018-04-30T01:03:18.534Z,2.90
2018-04-30T01:05:45.994Z,3.40
2018-04-30T01:08:13.462Z,3.27
2018-04-30T01:10:40.914Z,3.40
2018-04-30T01:13:08.370Z,3.13
2018-04-30T01:15:35.818Z,3.10
2018-04-30T01:18:03.267Z,3.20
2018-04-30T01:20:30.714Z,3.27
2018-04-30T01:22:58.169Z,3.90
2018-04-30T01:25:25.629Z,3.80
2018-04-30T01:27:53.083Z,3.63
2018-04-30T01:30:21.302Z,4.10
2018-04-30T01:32:48.767Z,3.83
2018-04-30T01:35:16.239Z,3.37
2018-04-30T01:37:43.690Z,3.20
2018-04-30T01:40:11.133Z,3.30
2018-04-30T01:42:38.593Z,3.10
2018-04-30T01:45:06.044Z,3.10
2018-04-30T01:47:33.504Z,3.20
2018-04-30T01:50:00.945Z,3.47
2018-04-30T01:52:28.393Z,3.60
2018-04-30T01:54:55.849Z,3.17
2018-04-30T01:57:23.290Z,3.53
2018-04-30T01:59:50.737Z,3.90
2018-04-30T02:02:18.961Z,3.80
2018-04-30T02:04:46.406Z,4.07
2018-04-30T02:07:13.864Z,3.63
2018-04-30T02:09:41.306Z,3.20
2018-04-30T02:12:08.751Z,3.10
2018-04-30T02:14:36.205Z,3.27
2018-04-30T02:17:03.656Z,3.30
2018-04-30T02:19:31.877Z,2.80
2018-04-30T02:21:59.322Z,3.00
2018-04-30T02:24:26.778Z,3.10
2018-04-30T02:26:54.237Z,3.53
2018-04-30T02:29:21.692Z,3.23
2018-04-30T02:31:49.144Z,3.03
2018-04-30T02:34:16.590Z,3.53
2018-04-30T02:36:44.058Z,3.00
2018-04-30T02:39:11.554Z,3.00
2018-04-30T02:41:39.026Z,3.07
2018-04-30T02:44:07.295Z,3.00
2018-04-30T02:46:34.746Z,2.70
2018-04-30T02:49:02.204Z,3.07
2018-04-30T02:51:29.665Z,2.67
2018-04-30T02:53:57.111Z,3.00
2018-04-30T02:56:24.570Z,2.80
2018-04-30T02:58:52.083Z,3.23
2018-04-30T03:01:19.532Z,2.83
2018-04-30T03:03:46.971Z,3.40
2018-04-30T03:06:15.198Z,2.87
2018-04-30T03:08:42.661Z,2.90
2018-04-30T03:11:10.126Z,2.80
2018-04-30T03:13:37.583Z,2.87
2018-04-30T03:16:05.034Z,2.93
2018-04-30T03:18:32.482Z,2.83
2018-04-30T03:20:59.957Z,2.73
2018-04-30T03:23:27.401Z,2.77
2018-04-30T03:25:55.251Z,2.60
2018-04-30T03:28:22.709Z,2.80
2018-04-30T03:30:50.157Z,2.57
2018-04-30T03:33:17.640Z,2.80
2018-04-30T03:35:45.088Z,2.77
2018-04-30T03:38:12.550Z,2.93
2018-04-30T03:40:40.000Z,2.50
2018-04-30T03:43:07.451Z,3.10
2018-04-30T03:45:34.910Z,3.43
2018-04-30T03:48:02.357Z,3.33
2018-04-30T03:50:29.818Z,3.73
2018-04-30T03:52:57.264Z,3.30
2018-04-30T03:55:24.713Z,3.90
2018-04-30T03:57:52.213Z,4.40
2018-04-30T04:00:31.505Z,4.10
2018-04-30T04:03:11.050Z,4.70
2018-04-30T04:05:50.489Z,3.90
2018-04-30T04:08:17.949Z,4.00
2018-04-30T04:10:45.409Z,3.70
2018-04-30T04:13:12.853Z,3.13
2018-04-30T04:15:40.318Z,3.37
2018-04-30T04:18:07.778Z,2.87
2018-04-30T04:20:35.235Z,2.47
2018-04-30T04:23:02.681Z,2.60
2018-04-30T04:25:30.133Z,2.07
2018-04-30T04:27:57.586Z,1.87
2018-04-30T04:30:25.045Z,2.00
2018-04-30T04:32:52.493Z,1.70
2018-04-30T04:35:20.725Z,1.53
2018-04-30T04:37:48.170Z,1.50
2018-04-30T04:40:15.633Z,1.40
2018-04-30T04:42:43.154Z,1.40
2018-04-30T04:45:10.709Z,1.17
2018-04-30T04:47:38.207Z,1.23
2018-04-30T04:50:05.644Z,1.27
2018-04-30T04:52:33.149Z,1.33
2018-04-30T04:55:01.396Z,0.97
2018-04-30T04:57:28.850Z,1.20
2018-04-30T04:59:56.349Z,1.30
2018-04-30T05:02:24.688Z,1.23
2018-04-30T05:04:52.902Z,1.00
2018-04-30T05:07:21.125Z,1.00
2018-04-30T05:09:48.569Z,1.20
2018-04-30T05:12:16.027Z,1.00
2018-04-30T05:14:43.519Z,1.10
2018-04-30T05:17:11.004Z,1.03
2018-04-30T05:19:38.518Z,1.03
2018-04-30T05:22:05.948Z,1.00
2018-04-30T05:24:33.526Z,0.97
2018-04-30T05:27:00.981Z,0.77
2018-04-30T05:29:28.433Z,1.00
2018-04-30T05:31:55.984Z,0.73
2018-04-30T05:34:23.500Z,0.80
2018-04-30T05:36:51.721Z,0.60
2018-04-30T05:39:19.287Z,0.80
2018-04-30T05:41:46.766Z,0.90
2018-04-30T05:44:14.231Z,0.70
2018-04-30T05:46:41.674Z,1.10
2018-04-30T05:49:09.138Z,0.73
2018-04-30T05:51:36.621Z,0.67
2018-04-30T05:54:04.156Z,0.63
2018-04-30T05:56:31.566Z,0.83
2018-04-30T05:58:59.086Z,0.87
2018-04-30T06:01:26.522Z,0.80
2018-04-30T06:03:54.035Z,0.80
2018-04-30T06:06:21.525Z,0.90
2018-04-30T06:08:48.985Z,0.80
2018-04-30T06:11:16.439Z,0.90
2018-04-30T06:13:43.961Z,0.70
2018-04-30T06:16:12.193Z,0.77
2018-04-30T06:18:39.647Z,0.80
2018-04-30T06:21:07.130Z,0.70
2018-04-30T06:23:35.429Z,0.70
2018-04-30T06:26:02.894Z,0.80
2018-04-30T06:28:30.355Z,0.73
2018-04-30T06:30:57.852Z,0.77
2018-04-30T06:33:25.426Z,0.80
2018-04-30T06:35:53.024Z,0.90
2018-04-30T06:38:20.386Z,0.60
2018-04-30T06:40:47.856Z,0.90
2018-04-30T06:43:15.293Z,0.80
2018-04-30T06:45:42.748Z,0.93
2018-04-30T06:48:10.232Z,0.80
2018-04-30T06:50:37.671Z,0.90
2018-04-30T06:53:05.122Z,0.90
2018-04-30T06:55:32.573Z,1.00
2018-04-30T06:58:00.814Z,1.00
2018-04-30T07:00:28.284Z,0.90
2018-04-30T07:02:55.733Z,1.10
2018-04-30T07:05:23.202Z,1.10
2018-04-30T07:07:50.653Z,0.90
2018-04-30T07:10:18.107Z,0.77
2018-04-30T07:12:45.564Z,1.10
2018-04-30T07:15:13.013Z,1.20
2018-04-30T07:17:40.492Z,1.00
2018-04-30T07:20:08.763Z,0.93
2018-04-30T07:22:36.162Z,1.00
2018-04-30T07:25:03.618Z,1.00
2018-04-30T07:27:31.136Z,1.10
2018-04-30T07:29:58.515Z,1.00
2018-04-30T07:32:25.957Z,0.93
2018-04-30T07:34:54.172Z,1.10
2018-04-30T07:37:21.628Z,0.87
2018-04-30T07:39:49.070Z,0.90
2018-04-30T07:42:16.517Z,0.90
2018-04-30T07:44:43.962Z,0.90
2018-04-30T07:47:12.180Z,0.90
2018-04-30T07:49:40.387Z,1.00
2018-04-30T07:52:07.836Z,0.90
2018-04-30T07:54:35.329Z,1.07
2018-04-30T07:57:02.741Z,0.80
2018-04-30T07:59:30.978Z,1.00
2018-04-30T08:01:58.415Z,1.00
2018-04-30T08:04:26.636Z,0.83
2018-04-30T08:06:54.086Z,0.80
2018-04-30T08:09:21.538Z,0.80
2018-04-30T08:11:48.990Z,0.90
2018-04-30T08:14:16.443Z,1.00
2018-04-30T08:16:43.901Z,1.00
2018-04-30T08:19:11.382Z,1.10
2018-04-30T08:21:38.842Z,1.03
2018-04-30T08:24:06.282Z,1.00
2018-04-30T08:26:33.752Z,0.80
2018-04-30T08:29:01.204Z,0.90
2018-04-30T08:31:28.968Z,0.93
2018-04-30T08:33:58.389Z,1.20
2018-04-30T08:36:26.487Z,0.90
2018-04-30T08:38:54.595Z,1.30
2018-04-30T08:41:22.613Z,0.80
2018-04-30T08:43:50.988Z,0.83
2018-04-30T08:46:19.402Z,0.73
2018-04-30T08:48:47.734Z,1.00
2018-04-30T08:51:16.045Z,1.10
2018-04-30T08:53:44.364Z,1.00
2018-04-30T08:56:13.556Z,1.07
2018-04-30T08:58:42.663Z,1.00
2018-04-30T09:01:11.085Z,1.00
2018-04-30T09:03:39.401Z,1.00
2018-04-30T09:06:07.729Z,0.80
2018-04-30T09:08:36.140Z,1.10
2018-04-30T09:11:04.455Z,1.30
2018-04-30T09:13:32.867Z,0.90
2018-04-30T09:16:01.192Z,1.17
2018-04-30T09:18:29.831Z,1.10
2018-04-30T09:20:57.311Z,1.00
2018-04-30T09:23:25.513Z,1.10
2018-04-30T09:25:53.062Z,1.00
2018-04-30T09:28:20.522Z,1.03
2018-04-30T09:30:47.979Z,1.10
2018-04-30T09:33:15.430Z,1.00
2018-04-30T09:35:42.892Z,1.10
2018-04-30T09:38:10.328Z,0.90
2018-04-30T09:40:38.569Z,1.03
2018-04-30T09:43:06.013Z,1.30
2018-04-30T09:45:33.469Z,0.93
2018-04-30T09:48:00.905Z,1.00
2018-04-30T09:50:28.365Z,0.93
2018-04-30T09:52:55.811Z,1.10
2018-04-30T09:55:23.278Z,1.03
2018-04-30T09:57:50.770Z,1.00
2018-04-30T10:00:18.186Z,0.90
2018-04-30T10:02:45.621Z,0.90
2018-04-30T10:05:13.086Z,1.00
2018-04-30T10:07:40.544Z,1.10
2018-04-30T10:10:07.991Z,1.00
2018-04-30T10:12:36.228Z,1.00
2018-04-30T10:15:03.682Z,1.00
2018-04-30T10:17:31.134Z,1.13
2018-04-30T10:19:58.584Z,1.13
2018-04-30T10:22:26.036Z,1.03
2018-04-30T10:24:53.481Z,1.10
2018-04-30T10:27:20.934Z,0.90
2018-04-30T10:29:48.389Z,1.20
2018-04-30T10:32:15.834Z,1.00
2018-04-30T10:34:43.288Z,0.90
2018-04-30T10:37:10.743Z,1.00
2018-04-30T10:39:38.186Z,1.10
2018-04-30T10:42:06.410Z,0.97
2018-04-30T10:44:33.851Z,0.90
2018-04-30T10:47:01.378Z,1.00
2018-04-30T10:49:28.757Z,1.10
2018-04-30T10:51:56.213Z,1.00
2018-04-30T10:54:23.661Z,1.13
2018-04-30T10:56:51.113Z,1.20
2018-04-30T10:59:18.563Z,1.10
2018-04-30T11:01:46.019Z,1.00
2018-04-30T11:04:14.239Z,1.10
2018-04-30T11:06:41.693Z,1.00
2018-04-30T11:09:09.151Z,0.90
2018-04-30T11:11:36.605Z,1.07
2018-04-30T11:14:04.179Z,1.00
2018-04-30T11:16:31.630Z,1.10
2018-04-30T11:18:59.073Z,1.10
2018-04-30T11:21:26.533Z,1.10
2018-04-30T11:23:53.981Z,1.13
2018-04-30T11:26:21.451Z,1.40
2018-04-30T11:28:48.959Z,1.30
2018-04-30T11:31:16.355Z,1.30
2018-04-30T11:33:43.822Z,1.40
2018-04-30T11:36:11.269Z,1.50
2018-04-30T11:38:38.722Z,1.60
2018-04-30T11:41:06.173Z,1.53
2018-04-30T11:43:33.626Z,1.70
2018-04-30T11:46:01.089Z,1.67
2018-04-30T11:48:28.542Z,1.50
2018-04-30T11:50:56.006Z,1.60
2018-04-30T11:53:23.461Z,1.50
2018-04-30T11:55:50.919Z,1.50
2018-04-30T11:58:18.378Z,1.43
2018-04-30T12:00:45.830Z,1.60
2018-04-30T12:03:13.290Z,1.60
2018-04-30T12:05:40.750Z,1.60
2018-04-30T12:08:08.197Z,1.50
2018-04-30T12:10:35.656Z,1.50
2018-04-30T12:13:03.097Z,1.50
2018-04-30T12:15:30.565Z,1.30
2018-04-30T12:17:58.015Z,1.30
2018-04-30T12:20:25.469Z,1.40
2018-04-30T12:22:52.921Z,1.50
2018-04-30T12:25:20.390Z,1.50
2018-04-30T12:27:47.954Z,1.50
2018-04-30T12:30:15.401Z,1.50
2018-04-30T12:32:42.872Z,1.50
2018-04-30T12:35:10.323Z,1.77
2018-04-30T12:37:37.770Z,1.70
2018-04-30T12:40:05.222Z,1.40
2018-04-30T12:42:32.662Z,1.50
2018-04-30T12:45:00.882Z,1.50
2018-04-30T12:47:28.365Z,1.50
2018-04-30T12:49:56.590Z,1.60
2018-04-30T12:52:24.049Z,1.60
2018-04-30T12:54:51.516Z,1.67
2018-04-30T12:57:18.977Z,1.70
2018-04-30T12:59:46.430Z,1.60
2018-04-30T13:02:13.877Z,1.80
2018-04-30T13:04:41.325Z,1.53
2018-04-30T13:07:08.775Z,1.60
2018-04-30T13:09:36.989Z,1.50
2018-04-30T13:12:04.435Z,1.63
2018-04-30T13:14:31.902Z,1.50
2018-04-30T13:16:59.350Z,1.40
2018-04-30T13:19:26.793Z,1.60
2018-04-30T13:21:54.256Z,1.47
2018-04-30T13:24:21.710Z,1.40
2018-04-30T13:26:49.166Z,1.50
2018-04-30T13:29:16.607Z,1.77
2018-04-30T13:31:44.833Z,1.73
2018-04-30T13:34:12.284Z,1.70
2018-04-30T13:36:39.736Z,1.57
2018-04-30T13:39:07.181Z,1.60
2018-04-30T13:41:34.642Z,1.50
2018-04-30T13:44:02.096Z,1.60
2018-04-30T13:46:29.536Z,1.47
2018-04-30T13:48:56.985Z,1.57
2018-04-30T13:51:24.445Z,1.60
2018-04-30T13:53:51.889Z,1.43
2018-04-30T13:56:20.110Z,1.33
2018-04-30T13:58:47.556Z,1.40
2018-04-30T14:01:15.013Z,1.50
2018-04-30T14:03:42.494Z,1.43
2018-04-30T14:06:09.958Z,1.60
2018-04-30T14:08:37.417Z,1.43
2018-04-30T14:11:04.857Z,1.70
2018-04-30T14:13:32.307Z,1.70
2018-04-30T14:15:59.814Z,1.40
2018-04-30T14:18:27.224Z,1.63
2018-04-30T14:20:54.673Z,1.40
2018-04-30T14:23:22.135Z,1.50
2018-04-30T14:25:49.569Z,1.60
2018-04-30T14:28:17.041Z,1.50
2018-04-30T14:30:44.485Z,1.33
2018-04-30T14:33:11.949Z,1.60
2018-04-30T14:35:39.413Z,1.50
2018-04-30T14:38:06.857Z,1.60
2018-04-30T14:40:34.320Z,1.50
2018-04-30T14:43:01.787Z,1.73
2018-04-30T14:45:29.237Z,1.60
2018-04-30T14:47:56.697Z,1.70
2018-04-30T14:50:24.149Z,1.67
2018-04-30T14:52:51.609Z,1.40
2018-04-30T14:55:19.056Z,1.80
2018-04-30T14:57:46.505Z,1.83
2018-04-30T15:00:13.954Z,1.53
2018-04-30T15:02:41.413Z,1.60
2018-04-30T15:05:08.866Z,1.80
2018-04-30T15:07:36.342Z,1.50
2018-04-30T15:10:03.785Z,1.83
2018-04-30T15:12:31.229Z,1.63
2018-04-30T15:14:59.439Z,1.60
2018-04-30T15:17:26.895Z,1.70
2018-04-30T15:19:54.481Z,2.07
2018-04-30T15:22:21.922Z,1.57
2018-04-30T15:24:49.374Z,1.57
2018-04-30T15:27:16.838Z,1.53
2018-04-30T15:29:44.279Z,1.57
2018-04-30T15:32:11.731Z,1.77
2018-04-30T15:34:39.187Z,1.70
2018-04-30T15:37:06.633Z,1.60
2018-04-30T15:39:34.077Z,1.40
2018-04-30T15:42:02.307Z,1.67
2018-04-30T15:44:29.738Z,1.70
2018-04-30T15:46:57.198Z,1.37
2018-04-30T15:49:24.645Z,1.50
2018-04-30T15:51:52.090Z,1.53
2018-04-30T15:54:19.545Z,1.57
2018-04-30T15:56:47.005Z,1.40
2018-04-30T15:59:14.470Z,1.60
2018-04-30T16:01:41.934Z,1.63
2018-04-30T16:04:09.375Z,1.57
2018-04-30T16:06:36.821Z,1.60
2018-04-30T16:09:05.082Z,1.70
2018-04-30T16:11:33.302Z,1.43
2018-04-30T16:14:00.818Z,1.77
2018-04-30T16:16:28.198Z,1.80
2018-04-30T16:18:55.654Z,1.70
2018-04-30T16:21:23.090Z,3.60
2018-04-30T16:23:50.541Z,1.70
2018-04-30T16:26:18.746Z,1.80
2018-04-30T16:28:46.203Z,2.10
2018-04-30T16:31:13.660Z,1.90
2018-04-30T16:33:41.109Z,1.60
2018-04-30T16:36:08.563Z,1.60
2018-04-30T16:38:36.014Z,1.60
2018-04-30T16:41:04.233Z,1.70
2018-04-30T16:43:31.685Z,1.73
2018-04-30T16:45:59.746Z,1.73
2018-04-30T16:48:27.206Z,1.73
2018-04-30T16:50:54.653Z,1.70
2018-04-30T16:53:22.097Z,1.63
2018-04-30T16:55:49.550Z,1.60
2018-04-30T16:58:16.994Z,2.00
2018-04-30T17:00:45.218Z,1.60
2018-04-30T17:03:12.657Z,1.60
2018-04-30T17:05:40.109Z,1.90
2018-04-30T17:08:07.574Z,1.73
2018-04-30T17:10:35.102Z,1.60
2018-04-30T17:13:02.475Z,1.47
2018-04-30T17:15:29.937Z,1.83
2018-04-30T17:17:57.401Z,1.83
2018-04-30T17:20:24.858Z,1.90
2018-04-30T17:22:52.299Z,1.80
2018-04-30T17:25:19.762Z,2.73
2018-04-30T17:27:47.213Z,2.03
2018-04-30T17:30:14.678Z,1.93
2018-04-30T17:32:42.121Z,1.70
2018-04-30T17:35:09.561Z,2.07
2018-04-30T17:37:37.789Z,2.00
2018-04-30T17:40:05.242Z,2.47
2018-04-30T17:42:32.701Z,2.00
2018-04-30T17:45:00.163Z,1.97
2018-04-30T17:47:27.618Z,1.90
2018-04-30T17:49:55.101Z,2.43
2018-04-30T17:52:22.543Z,2.23
2018-04-30T17:54:50.006Z,2.80
2018-04-30T17:57:17.473Z,2.70
2018-04-30T17:59:44.918Z,3.87
2018-04-30T18:02:12.363Z,3.87
2018-04-30T18:04:39.847Z,3.50
2018-04-30T18:07:07.341Z,3.63
2018-04-30T18:09:34.754Z,3.07
2018-04-30T18:12:02.199Z,3.20
2018-04-30T18:14:29.658Z,3.57
2018-04-30T18:16:57.122Z,7.07
2018-04-30T18:19:24.573Z,6.37
2018-04-30T18:21:52.035Z,4.60
2018-04-30T18:24:19.491Z,5.60
2018-04-30T18:26:46.982Z,4.40
2018-04-30T18:29:14.421Z,3.17
2018-04-30T18:31:41.879Z,3.20
2018-04-30T18:34:09.322Z,3.50
2018-04-30T18:36:36.768Z,3.83
2018-04-30T18:39:04.218Z,3.37
2018-04-30T18:41:31.661Z,3.70
2018-04-30T18:43:59.114Z,4.00
2018-04-30T18:46:26.568Z,3.17
2018-04-30T18:48:54.014Z,2.23
2018-04-30T18:51:21.467Z,2.00
2018-04-30T18:53:48.900Z,1.70
2018-04-30T18:56:17.117Z,2.10
2018-04-30T18:58:44.582Z,1.73
2018-04-30T19:01:12.040Z,1.93
2018-04-30T19:03:39.518Z,2.20
2018-04-30T19:06:06.962Z,2.43
2018-04-30T19:08:34.417Z,2.00
2018-04-30T19:11:01.874Z,1.80
2018-04-30T19:13:29.321Z,1.77
2018-04-30T19:15:56.784Z,2.20
2018-04-30T19:18:24.230Z,1.77
2018-04-30T19:20:51.674Z,2.00
2018-04-30T19:23:19.119Z,2.00
2018-04-30T19:25:46.566Z,2.00
2018-04-30T19:28:14.014Z,1.80
2018-04-30T19:30:42.236Z,1.83
2018-04-30T19:33:09.677Z,2.00
2018-04-30T19:35:37.118Z,2.00
2018-04-30T19:38:04.577Z,1.80
2018-04-30T19:40:32.025Z,2.13
2018-04-30T19:43:00.245Z,2.80
2018-04-30T19:45:27.747Z,2.60
2018-04-30T19:47:55.137Z,3.00
2018-04-30T19:50:22.625Z,2.60
2018-04-30T19:52:50.168Z,2.77
2018-04-30T19:55:17.541Z,3.03
2018-04-30T19:57:45.038Z,2.60
2018-04-30T20:00:13.247Z,2.03
2018-04-30T20:02:40.709Z,2.53
2018-04-30T20:05:08.151Z,2.73
2018-04-30T20:07:35.603Z,2.20
2018-04-30T20:10:03.092Z,2.10
2018-04-30T20:12:31.305Z,2.33
2018-04-30T20:14:58.768Z,2.17
2018-04-30T20:17:26.211Z,2.40
2018-04-30T20:19:53.730Z,1.60
2018-04-30T20:22:21.186Z,2.00
2018-04-30T20:24:48.654Z,1.73
2018-04-30T20:27:16.113Z,1.90
2018-04-30T20:29:43.561Z,2.10
2018-04-30T20:32:12.033Z,2.00
2018-04-30T20:34:39.489Z,2.10
2018-04-30T20:37:06.943Z,2.20
2018-04-30T20:39:34.398Z,2.17
2018-04-30T20:42:01.848Z,2.60
2018-04-30T20:44:29.381Z,2.40
2018-04-30T20:46:56.764Z,2.30
2018-04-30T20:49:24.954Z,3.23
2018-04-30T20:51:52.406Z,4.07
2018-04-30T20:54:19.850Z,2.67
2018-04-30T20:56:47.310Z,2.60
2018-04-30T20:59:14.754Z,2.90
2018-04-30T21:01:42.219Z,3.03
2018-04-30T21:04:09.679Z,4.40
2018-04-30T21:06:37.282Z,3.47
2018-04-30T21:09:11.305Z,3.20
2018-04-30T21:11:38.746Z,2.67
2018-04-30T21:14:06.185Z,3.00
2018-04-30T21:16:33.656Z,3.33
2018-04-30T21:19:01.098Z,2.83
2018-04-30T21:21:28.554Z,3.33
2018-04-30T21:23:56.006Z,2.90
2018-04-30T21:26:23.457Z,2.70
2018-04-30T21:28:50.906Z,3.20
2018-04-30T21:31:18.346Z,2.97
2018-04-30T21:33:45.797Z,3.00
2018-04-30T21:36:13.261Z,3.10
2018-04-30T21:38:40.720Z,4.00
2018-04-30T21:41:08.166Z,2.60
2018-04-30T21:43:36.375Z,2.30
2018-04-30T21:46:03.839Z,2.00
2018-04-30T21:48:31.277Z,2.07
2018-04-30T21:50:58.736Z,2.03
2018-04-30T21:53:26.188Z,1.67
2018-04-30T21:55:53.634Z,1.80
2018-04-30T21:58:21.081Z,1.77
2018-04-30T22:00:49.289Z,1.90
2018-04-30T22:03:16.733Z,1.60
2018-04-30T22:05:44.177Z,1.60
2018-04-30T22:08:11.630Z,1.77
2018-04-30T22:10:39.074Z,2.00
2018-04-30T22:13:07.292Z,2.00
2018-04-30T22:15:34.745Z,2.20
2018-04-30T22:18:02.191Z,2.20
2018-04-30T22:20:29.635Z,2.30
2018-04-30T22:22:57.076Z,2.20
2018-04-30T22:25:25.286Z,2.37
2018-04-30T22:27:52.727Z,2.60
2018-04-30T22:30:20.179Z,2.50
2018-04-30T22:32:47.623Z,2.30
2018-04-30T22:35:15.835Z,2.60
2018-04-30T22:37:43.281Z,2.60
2018-04-30T22:40:10.743Z,2.60
2018-04-30T22:42:38.195Z,2.70
2018-04-30T22:45:05.642Z,3.00
2018-04-30T22:47:33.097Z,3.20
2018-04-30T22:50:00.546Z,2.67
2018-04-30T22:52:27.990Z,2.60
2018-04-30T22:54:56.214Z,3.07
2018-04-30T22:57:23.657Z,2.73
2018-04-30T22:59:51.101Z,2.87
2018-04-30T23:02:18.549Z,3.20
2018-04-30T23:04:46.025Z,3.97
2018-04-30T23:07:13.486Z,4.40
2018-04-30T23:09:40.929Z,4.53
2018-04-30T23:12:08.395Z,5.50
2018-04-30T23:14:35.850Z,6.43
2018-04-30T23:17:03.310Z,7.37
2018-04-30T23:19:30.766Z,7.47
2018-04-30T23:21:58.222Z,8.60
2018-04-30T23:24:25.670Z,8.20
2018-04-30T23:26:53.118Z,7.40
2018-04-30T23:29:20.577Z,6.23
2018-04-30T23:31:48.821Z,5.87
2018-04-30T23:34:16.268Z,5.63
2018-04-30T23:36:43.718Z,4.97
2018-04-30T23:39:11.184Z,4.23
2018-04-30T23:41:38.692Z,4.00
2018-04-30T23:44:06.156Z,3.90
2018-04-30T23:46:33.663Z,3.47
2018-04-30T23:49:01.165Z,3.90
2018-04-30T23:51:28.671Z,3.47
2018-04-30T23:53:56.135Z,3.40
2018-04-30T23:56:23.617Z,3.93
2018-04-30T23:58:51.836Z,3.60
